Terminal Aerodrome Forecast
Issued by NWS

Home | Current Version | Previous Version | Text Only | Print | Product List | Glossary On
Versions: 1 2 3 4 5 6 7 8 9 10 11 12 13 14 15 16 17 18 19 20 21 22 23 24 25 26 27 28
000
FTUS43 KFGF 231130 AAA
TAFDVL
TAF AMD
KDVL 231130Z 2312/2412 33011KT P6SM BKN025
     FM231600 35008KT P6SM BKN015
     FM231900 01008KT P6SM BKN035
     FM240300 05008KT P6SM VCSH OVC025
     FM240600 03010KT P6SM -RA OVC008=

USA.gov is the U.S. government's official web portal to all federal, state and local government web resources and services.